Flight Track Log - Related Links

Times and Time Zones

All times are in EDT time to prevent confusion due to time zone crossing. See the DAL3903 flight status page for this flight to view local times or setup timezone preferences in your user account.

Time Position Orientation Groundspeed Altitude Reporting Facility
EDT Latitude Longitude Course Direction KTS MPH feet Rate Location/Type
Fri 09:00:17 AM 42.2036 -83.3556 94° East 138 159 1,300  Level Cleveland Center
Fri 09:01:12 AM 42.1644 -83.3453 169° South 201 231 3,000 2,121 Climbing Cleveland Center
Fri 09:02:13 AM 42.1064 -83.3317 170° South 237 273 5,400 2,607 Climbing Cleveland Center
Fri 09:03:00 AM 42.2167 -82.7386 90° East  Level FlightAware Approximate
Fri 09:03:14 AM 42.0583 -83.2456 127° Southeast 309 356 8,300  Level Cleveland Center
Fri 09:04:00 AM 42.2167 -82.5849 90° East  Level FlightAware Approximate
Fri 09:04:15 AM 42.0714 -83.1314 81° East 337 388 10,800  Level Cleveland Center
Fri 09:05:00 AM 42.2165 -82.4311 94° East  Level FlightAware Approximate
Fri 09:05:16 AM 42.1014 -82.9956 73° East 381 438 12,100  Level Cleveland Center
Fri 09:06:22 AM 42.1336 -82.8428 74° East 393 452 13,700 1,524 Climbing Cleveland Center
Fri 09:07:22 AM 42.1678 -82.6956 73° East 393 452 15,300 1,600 Climbing Cleveland Center
Fri 09:08:22 AM 42.1994 -82.5508 73° East 393 452 16,900 1,550 Climbing Cleveland Center
Fri 09:09:22 AM 42.2208 -82.4000 79° East 398 458 18,400 1,400 Climbing Cleveland Center
Fri 09:10:22 AM 42.2086 -82.2428 96° East 398 458 19,700 950 Climbing Cleveland Center
Fri 09:11:22 AM 42.1981 -82.0967 96° East 421 484 20,300 700 Climbing Cleveland Center
Fri 09:12:22 AM 42.1750 -81.9336 101° East 443 510 21,100 800 Climbing Cleveland Center
Fri 09:13:22 AM 42.0867 -81.8197 136° Southeast 415 478 21,900 800 Climbing Cleveland Center
Fri 09:14:22 AM 41.9939 -81.7092 138° Southeast 429 494 22,700 800 Climbing Cleveland Center
Fri 09:15:22 AM 41.9011 -81.6042 140° Southeast 442 509 23,500 800 Climbing Cleveland Center
Fri 09:16:22 AM 41.7958 -81.4856 140° Southeast 448 516 24,300 800 Climbing Cleveland Center
Fri 09:17:22 AM 41.7028 -81.3758 139° Southeast 448 516 25,100 850 Climbing Cleveland Center
Fri 09:18:22 AM 41.6056 -81.2692 141° Southeast 448 516 26,000 850 Climbing Cleveland Center
Fri 09:19:22 AM 41.5167 -81.1544 136° Southeast 453 521 26,800 800 Climbing Cleveland Center
Fri 09:20:22 AM 41.4569 -81.0069 118° Southeast 448 516 27,600 750 Climbing Cleveland Center
Fri 09:21:22 AM 41.3969 -80.8572 118° Southeast 453 521 28,300 550 Climbing Cleveland Center
Fri 09:22:22 AM 41.3367 -80.7075 118° Southeast 453 521 28,700 650 Climbing Cleveland Center
Fri 09:23:22 AM 41.2844 -80.5692 117° Southeast 453 521 29,600 800 Climbing Cleveland Center
Fri 09:24:22 AM 41.2261 -80.4203 117° Southeast 453 521 30,300 600 Climbing Cleveland Center
Fri 09:25:22 AM 41.1633 -80.2578 117° Southeast 453 521 30,800 350 Climbing Cleveland Center
Fri 09:26:22 AM 41.1044 -80.1092 118° Southeast 453 521 31,000 100 Climbing Cleveland Center
Fri 09:27:22 AM 41.0411 -79.9528 118° Southeast 459 528 31,000 -550 Level Cleveland Center
Fri 09:28:22 AM 40.9756 -79.7939 119° Southeast 471 542 29,900 -1,150 Descending Cleveland Center
Fri 09:29:22 AM 40.9117 -79.6353 118° Southeast 477 549 28,700 -1,200 Descending Cleveland Center
Fri 09:30:22 AM 40.8478 -79.4769 118° Southeast 483 556 27,500 -1,200 Descending Cleveland Center
Fri 09:31:22 AM 40.7814 -79.3189 119° Southeast 483 556 26,300 -1,200 Descending Cleveland Center
Fri 09:32:22 AM 40.7192 -79.1667 118° Southeast 483 556 25,100 -1,200 Descending Cleveland Center
Fri 09:33:22 AM 40.6567 -79.0122 118° Southeast 478 550 23,900 -1,200 Descending Cleveland Center
Fri 09:34:22 AM 40.5964 -78.8769 120° Southeast 478 550 22,700 -1,200 Descending Cleveland Center
Fri 09:35:22 AM 40.5439 -78.7225 114° Southeast 478 550 21,500 -1,150 Descending Cleveland Center
Fri 09:36:22 AM 40.5181 -78.5539 101° East 465 535 20,400 -1,150 Descending Cleveland Center
Fri 09:37:22 AM 40.4942 -78.3881 101° East 459 528 19,200 -1,241 Descending Cleveland Center
Fri 09:38:18 AM 40.4739 -78.2311 100° East 444 511 18,000 -1,231 Descending New York Center
Fri 09:39:19 AM 40.4503 -78.0756 101° East 438 504 16,800 -1,289 Descending New York Center
Fri 09:40:19 AM 40.4303 -77.9289 100° East 427 491 15,400 -1,424 Descending New York Center
Fri 09:41:17 AM 40.4139 -77.8181 101° East 389 448 14,000 -1,513 Descending New York Center
Fri 09:42:18 AM 40.3978 -77.7019 100° East 345 397 12,400 -1,672 Descending New York Center
Fri 09:43:19 AM 40.3761 -77.5744 103° East 320 368 10,600 -1,686 Descending New York Center
Fri 09:44:19 AM 40.3628 -77.4778 100° East 310 357 9,000 -1,714 Descending New York Center
Fri 09:45:18 AM 40.3464 -77.3617 100° East 298 343 7,200 -1,361 Descending New York Center
Fri 09:46:18 AM 40.3219 -77.2750 110° East 285 328 6,300 -1,059 Descending New York Center
Fri 09:47:17 AM 40.2894 -77.1822 115° Southeast 263 303 5,100 -655 Descending New York Center
Fri 09:48:17 AM 40.2625 -77.1061 115° Southeast 252 290 5,000 -50 Descending New York Center
Fri 09:49:17 AM 40.2250 -77.0239 121° Southeast 247 284 5,000 -49 Level New York Center
Fri 09:50:19 AM 40.1928 -76.9611 124° Southeast 237 273 4,900 -689 Descending New York Center
Fri 09:51:19 AM 40.1531 -76.8869 125° Southeast 232 267 3,600 -1,300 Descending New York Center
Fri 09:52:19 AM 40.1253 -76.8194 118° Southeast 221 254 2,300 -915 Descending New York Center
Fri 09:53:17 AM 40.1183 -76.7508 98° East 202 232 1,800 -303 Descending New York Center
Fri 09:54:18 AM 40.1419 -76.6958 61° Northeast 167 192 1,700 -98 Descending New York Center

Login

Don't have an account? Register now (free) for customized features, flight alerts, and more!